Time;durP1;ratioP1;P1;durP2;ratioP2;P2;SDS_P1;SDS_P2;PMS_P1;PMS_P2;Temp;Humidity;BMP_temperature;BMP_pressure;BME280_temperature;BME280_humidity;BME280_pressure;Samples;Min_cycle;Max_cycle;Signal;HPM_P1;HPM_P2
2022/01/10 00:01:46;;;;;;;20.55;6.53;;;2.20;99.90;;;;;;5124585;28;20047;-70
2022/01/10 00:04:12;;;;;;;25.38;6.35;;;2.20;99.90;;;;;;5125463;28;20039;-70
2022/01/10 00:06:38;;;;;;;22.00;6.40;;;2.10;99.90;;;;;;5117753;28;20043;-70
2022/01/10 00:09:04;;;;;;;17.73;5.57;;;2.10;99.90;;;;;;5124158;28;20044;-70
2022/01/10 00:11:30;;;;;;;23.17;6.60;;;2.00;99.90;;;;;;5157416;27;20107;-70
2022/01/10 00:13:56;;;;;;;18.42;6.07;;;1.90;99.90;;;;;;5117003;28;20048;-70
2022/01/10 00:16:22;;;;;;;27.85;6.13;;;1.90;99.90;;;;;;5107685;28;20047;-70
2022/01/10 00:18:48;;;;;;;18.35;5.88;;;1.70;99.90;;;;;;5123132;28;20047;-70
2022/01/10 00:21:15;;;;;;;26.20;5.68;;;1.70;99.90;;;;;;5122724;28;20043;-70
2022/01/10 00:23:41;;;;;;;19.17;5.75;;;1.80;99.90;;;;;;5116912;28;20074;-70
2022/01/10 00:26:07;;;;;;;19.55;5.90;;;1.80;99.90;;;;;;5121252;28;20051;-70
2022/01/10 00:28:32;;;;;;;23.42;6.68;;;1.80;99.90;;;;;;5123132;28;20052;-70
2022/01/10 00:30:58;;;;;;;25.20;6.40;;;1.70;99.90;;;;;;5118675;28;20130;-70
2022/01/10 00:33:24;;;;;;;22.75;6.10;;;1.70;99.90;;;;;;5124586;28;20054;-70
2022/01/10 00:35:50;;;;;;;24.02;6.65;;;1.70;99.90;;;;;;5121056;28;20095;-70
2022/01/10 00:38:15;;;;;;;27.75;6.95;;;1.70;99.90;;;;;;5122683;28;20096;-70
2022/01/10 00:40:42;;;;;;;23.65;7.57;;;1.70;99.90;;;;;;5122988;28;20097;-70
2022/01/10 00:43:16;;;;;;;20.80;7.30;;;1.60;99.90;;;;;;5119233;28;20043;-70
2022/01/10 00:45:42;;;;;;;25.65;7.10;;;1.60;99.90;;;;;;5122666;28;20055;-70
2022/01/10 00:48:08;;;;;;;27.33;8.50;;;1.80;99.90;;;;;;5122485;28;20051;-70
2022/01/10 00:50:33;;;;;;;29.65;8.18;;;1.70;99.90;;;;;;5122418;28;20051;-70
2022/01/10 00:53:01;;;;;;;27.52;7.15;;;1.80;99.90;;;;;;5123440;28;20035;-70
2022/01/10 00:55:29;;;;;;;25.15;7.97;;;1.70;99.90;;;;;;5122349;28;20044;-70
2022/01/10 00:57:55;;;;;;;21.40;6.80;;;1.70;99.90;;;;;;5150554;27;20048;-70
2022/01/10 01:00:21;;;;;;;22.35;7.10;;;1.70;99.90;;;;;;5137021;27;20040;-70
2022/01/10 01:02:47;;;;;;;20.08;7.53;;;1.70;99.90;;;;;;5119747;28;20036;-70
2022/01/10 01:05:18;;;;;;;22.65;7.47;;;1.70;99.90;;;;;;5126382;28;20074;-70
2022/01/10 01:07:44;;;;;;;24.13;6.85;;;1.90;99.90;;;;;;5127288;28;20599;-70
2022/01/10 01:13:12;;;;;;;23.70;6.75;;;1.80;99.90;;;;;;5127794;27;20089;-70
2022/01/10 01:20:02;;;;;;;22.08;7.13;;;1.70;99.90;;;;;;5125577;28;20096;-70
2022/01/10 01:26:30;;;;;;;19.33;6.30;;;1.80;99.90;;;;;;5125796;28;20057;-70
2022/01/10 01:28:56;;;;;;;24.40;7.22;;;1.70;99.90;;;;;;5102220;28;20080;-70
2022/01/10 01:31:22;;;;;;;29.80;7.53;;;1.70;99.90;;;;;;5125834;28;20044;-70
2022/01/10 01:33:48;;;;;;;23.90;7.28;;;1.60;99.90;;;;;;5118924;28;20051;-70
2022/01/10 01:36:17;;;;;;;24.83;7.18;;;1.50;99.90;;;;;;5125876;28;20110;-70
2022/01/10 01:38:42;;;;;;;31.20;8.75;;;1.50;99.90;;;;;;5117210;28;20051;-70
2022/01/10 01:43:53;;;;;;;22.70;7.90;;;1.60;99.90;;;;;;5125620;28;20051;-70
2022/01/10 01:46:20;;;;;;;26.52;9.05;;;1.50;99.90;;;;;;5125660;28;20102;-70
2022/01/10 01:48:46;;;;;;;20.08;7.60;;;1.60;99.90;;;;;;5126357;27;20040;-70
2022/01/10 01:51:13;;;;;;;28.10;7.47;;;1.50;99.90;;;;;;5124811;28;20048;-70
2022/01/10 01:53:38;;;;;;;22.98;7.55;;;1.50;99.90;;;;;;5118093;28;20063;-70
2022/01/10 01:56:05;;;;;;;28.50;8.23;;;1.50;99.90;;;;;;5112611;28;20035;-70
2022/01/10 01:58:32;;;;;;;28.13;9.00;;;1.40;99.90;;;;;;5122170;28;20043;-70
2022/01/10 02:00:58;;;;;;;24.25;8.38;;;1.40;99.90;;;;;;5120772;28;20073;-70
2022/01/10 02:03:24;;;;;;;30.58;9.38;;;1.50;99.90;;;;;;5119213;28;20488;-70
2022/01/10 02:05:49;;;;;;;29.35;9.10;;;1.60;99.90;;;;;;5125512;28;20055;-70
2022/01/10 02:08:15;;;;;;;24.80;9.50;;;1.50;99.90;;;;;;5126153;28;20040;-70
2022/01/10 02:10:41;;;;;;;26.73;9.50;;;1.60;99.90;;;;;;5127361;28;20118;-70
2022/01/10 02:13:07;;;;;;;30.23;9.73;;;1.50;99.90;;;;;;5119969;28;20068;-70
2022/01/10 02:15:59;;;;;;;38.30;10.05;;;1.40;99.90;;;;;;5126635;28;20036;-70
2022/01/10 02:18:25;;;;;;;24.50;9.88;;;1.50;99.90;;;;;;5159578;27;20073;-70
2022/01/10 02:20:51;;;;;;;24.85;8.77;;;1.50;99.90;;;;;;5124831;28;20044;-70
2022/01/10 02:23:18;;;;;;;32.25;9.65;;;1.30;99.90;;;;;;5125337;28;20062;-70
2022/01/10 02:25:45;;;;;;;23.50;9.02;;;1.30;99.90;;;;;;5125608;28;20100;-70
2022/01/10 02:28:11;;;;;;;24.88;9.10;;;1.00;99.90;;;;;;5124316;27;20122;-70
2022/01/10 02:30:37;;;;;;;25.25;9.57;;;1.00;99.90;;;;;;5124554;28;20056;-70
2022/01/10 02:33:04;;;;;;;25.15;9.30;;;1.00;99.90;;;;;;5121384;28;20036;-70
2022/01/10 02:35:36;;;;;;;33.92;11.05;;;1.00;99.90;;;;;;5159136;27;20051;-70
2022/01/10 02:38:03;;;;;;;34.28;11.80;;;1.10;99.90;;;;;;5152240;27;20058;-70
2022/01/10 02:40:31;;;;;;;33.30;11.23;;;1.10;99.90;;;;;;5120798;28;20039;-70
2022/01/10 02:42:57;;;;;;;29.80;11.32;;;1.10;99.90;;;;;;5155533;27;20047;-70
2022/01/10 02:45:24;;;;;;;28.77;11.55;;;1.20;99.90;;;;;;5118551;28;20167;-70
2022/01/10 02:47:50;;;;;;;26.83;11.07;;;1.10;99.90;;;;;;5125495;28;20400;-70
2022/01/10 02:50:17;;;;;;;27.90;13.10;;;1.10;99.90;;;;;;5124151;28;20046;-70
2022/01/10 02:52:43;;;;;;;32.33;12.77;;;1.20;99.90;;;;;;5121431;28;20521;-70
2022/01/10 02:55:10;;;;;;;40.80;13.77;;;1.20;99.90;;;;;;5111838;28;20055;-70
2022/01/10 02:57:36;;;;;;;37.50;13.93;;;1.20;99.90;;;;;;5107684;28;20103;-70
2022/01/10 03:00:13;;;;;;;41.92;14.35;;;1.20;99.90;;;;;;5158333;27;20065;-70
2022/01/10 03:02:41;;;;;;;37.80;14.40;;;1.30;99.90;;;;;;5125514;28;20043;-70
2022/01/10 03:05:07;;;;;;;35.28;12.82;;;1.20;99.90;;;;;;5126015;27;20072;-70
2022/01/10 03:07:33;;;;;;;36.08;12.98;;;1.20;99.90;;;;;;5125596;28;20036;-70
2022/01/10 03:09:59;;;;;;;32.88;11.70;;;1.10;99.90;;;;;;5125270;28;20043;-70
2022/01/10 03:12:25;;;;;;;28.20;13.27;;;1.20;99.90;;;;;;5124791;28;20047;-70
2022/01/10 03:14:51;;;;;;;32.90;13.60;;;1.20;99.90;;;;;;5125457;28;20530;-70
2022/01/10 03:17:17;;;;;;;35.80;13.23;;;1.20;99.90;;;;;;5112462;28;20044;-70
2022/01/10 03:19:44;;;;;;;33.92;13.63;;;1.10;99.90;;;;;;5120744;28;20040;-70
2022/01/10 03:22:10;;;;;;;33.95;14.40;;;1.10;99.90;;;;;;5117614;28;20054;-70
2022/01/10 03:24:36;;;;;;;37.50;13.70;;;1.10;99.90;;;;;;5116982;28;20130;-70
2022/01/10 03:27:02;;;;;;;38.45;14.75;;;0.90;99.90;;;;;;5116854;28;20082;-70
2022/01/10 03:29:28;;;;;;;32.63;13.77;;;0.90;99.90;;;;;;5123032;28;20058;-70
2022/01/10 03:31:54;;;;;;;28.52;13.35;;;1.00;99.90;;;;;;5125476;28;20040;-70
2022/01/10 03:34:20;;;;;;;31.10;12.82;;;0.90;99.90;;;;;;5124861;28;20051;-70
2022/01/10 03:36:46;;;;;;;33.08;13.05;;;0.80;99.90;;;;;;5125502;28;20051;-70
2022/01/10 03:39:13;;;;;;;38.17;13.82;;;0.90;99.90;;;;;;5115985;28;20035;-70
2022/01/10 03:41:40;;;;;;;27.60;13.15;;;0.80;99.90;;;;;;5115875;28;20056;-70
2022/01/10 03:44:06;;;;;;;39.00;14.73;;;0.80;99.90;;;;;;5116550;27;20059;-70
2022/01/10 03:46:33;;;;;;;35.63;15.20;;;0.90;99.90;;;;;;5103566;28;20047;-70
2022/01/10 03:49:04;;;;;;;43.95;16.45;;;0.80;99.90;;;;;;5125917;28;20161;-70
2022/01/10 03:51:30;;;;;;;31.75;14.98;;;0.80;99.90;;;;;;5123808;28;20388;-70
2022/01/10 03:53:56;;;;;;;37.60;15.27;;;0.70;99.90;;;;;;5124421;28;20043;-70
2022/01/10 03:56:25;;;;;;;44.72;15.80;;;0.80;99.90;;;;;;5123569;28;20069;-70
2022/01/10 03:58:50;;;;;;;40.15;15.55;;;0.80;99.90;;;;;;5157534;27;20054;-70
2022/01/10 04:01:16;;;;;;;33.72;15.20;;;0.70;99.90;;;;;;5124172;28;20040;-70
2022/01/10 04:03:42;;;;;;;32.30;13.27;;;0.70;99.90;;;;;;5123208;28;20054;-70
2022/01/10 04:06:08;;;;;;;33.90;13.80;;;0.60;99.90;;;;;;5125106;28;20040;-70
2022/01/10 04:08:35;;;;;;;41.20;14.55;;;0.50;99.90;;;;;;5125771;28;20377;-70
2022/01/10 04:11:01;;;;;;;38.22;14.98;;;0.50;99.90;;;;;;5123887;28;20099;-70
2022/01/10 04:13:26;;;;;;;35.15;14.25;;;0.60;99.90;;;;;;5124123;28;20066;-70
2022/01/10 04:15:52;;;;;;;40.55;14.93;;;0.60;99.90;;;;;;5123833;28;20107;-70
2022/01/10 04:18:19;;;;;;;40.35;15.00;;;0.50;99.90;;;;;;5158527;27;20046;-70
2022/01/10 04:20:45;;;;;;;33.58;15.45;;;0.50;99.90;;;;;;5157789;27;20051;-70
2022/01/10 04:23:13;;;;;;;34.08;14.02;;;0.40;99.90;;;;;;5122876;28;20039;-70
2022/01/10 04:25:39;;;;;;;35.20;14.00;;;0.40;99.90;;;;;;5124530;28;20048;-70
2022/01/10 04:28:05;;;;;;;34.88;14.40;;;0.40;99.90;;;;;;5122239;28;20043;-70
2022/01/10 04:30:31;;;;;;;40.22;15.90;;;0.20;99.90;;;;;;5157189;27;20090;-70
2022/01/10 04:33:00;;;;;;;37.42;14.75;;;0.40;99.90;;;;;;5116884;28;20036;-70
2022/01/10 04:35:27;;;;;;;35.13;15.52;;;0.40;99.90;;;;;;5121761;27;20518;-69
2022/01/10 04:37:52;;;;;;;45.58;16.63;;;0.20;99.90;;;;;;5151395;27;20107;-69
2022/01/10 04:40:19;;;;;;;41.10;16.40;;;0.30;99.90;;;;;;5101539;28;20052;-69
2022/01/10 04:42:45;;;;;;;45.72;18.75;;;0.20;99.90;;;;;;5151839;27;20085;-69
2022/01/10 04:45:11;;;;;;;46.30;18.80;;;0.20;99.90;;;;;;5162275;27;20048;-69
2022/01/10 04:47:37;;;;;;;45.40;19.80;;;0.30;99.90;;;;;;5128455;28;20039;-69
2022/01/10 04:52:37;;;;;;;44.92;20.00;;;0.40;99.90;;;;;;5129224;28;20480;-69
2022/01/10 04:55:04;;;;;;;46.30;20.27;;;0.40;99.90;;;;;;5128020;28;20048;-69
2022/01/10 04:57:29;;;;;;;46.88;19.52;;;0.40;99.90;;;;;;5129765;28;20051;-69
2022/01/10 04:59:55;;;;;;;51.42;19.63;;;0.50;99.90;;;;;;5128313;28;20184;-69
2022/01/10 05:02:21;;;;;;;48.75;23.05;;;0.30;99.90;;;;;;5127976;28;20040;-70
2022/01/10 05:04:47;;;;;;;52.53;21.75;;;0.50;99.90;;;;;;5111149;28;20419;-70
2022/01/10 05:07:12;;;;;;;50.17;21.67;;;0.30;99.90;;;;;;5127659;28;20055;-70
2022/01/10 05:09:38;;;;;;;39.35;19.92;;;0.50;99.90;;;;;;5129299;28;20047;-70
2022/01/10 05:12:04;;;;;;;47.85;20.55;;;0.30;99.90;;;;;;5127667;28;20085;-70
2022/01/10 05:14:32;;;;;;;48.25;20.08;;;0.40;99.90;;;;;;5129182;28;20087;-70
2022/01/10 05:16:58;;;;;;;50.72;20.63;;;0.20;99.90;;;;;;5128213;28;20126;-70
2022/01/10 05:19:23;;;;;;;40.50;18.45;;;0.20;99.90;;;;;;5127924;28;20051;-69
2022/01/10 05:21:49;;;;;;;46.40;18.83;;;0.30;99.90;;;;;;5128995;28;20039;-69
2022/01/10 05:24:15;;;;;;;53.55;19.17;;;0.10;99.90;;;;;;5128963;28;20051;-69
2022/01/10 05:26:40;;;;;;;41.08;19.17;;;0.10;99.90;;;;;;5128650;28;20036;-69
2022/01/10 05:29:06;;;;;;;47.35;19.50;;;0.10;99.90;;;;;;5126979;28;20128;-69
2022/01/10 05:31:33;;;;;;;41.70;19.23;;;0.00;99.90;;;;;;5128547;28;20051;-69
2022/01/10 05:33:59;;;;;;;45.90;19.10;;;0.20;99.90;;;;;;5127526;28;20071;-69
2022/01/10 05:36:25;;;;;;;47.13;20.02;;;0.10;99.90;;;;;;5127117;28;20358;-69
2022/01/10 05:38:51;;;;;;;41.00;19.02;;;0.00;99.90;;;;;;5126596;28;20496;-69
2022/01/10 05:41:16;;;;;;;44.88;20.98;;;0.10;99.90;;;;;;5072845;28;20059;-70
2022/01/10 05:43:43;;;;;;;48.22;19.77;;;0.00;99.90;;;;;;5125306;28;20051;-70
2022/01/10 05:46:12;;;;;;;43.35;19.67;;;0.00;99.90;;;;;;5125038;28;20567;-71
2022/01/10 05:48:40;;;;;;;47.50;19.67;;;0.10;99.90;;;;;;5125995;28;20071;-69
2022/01/10 05:51:07;;;;;;;43.47;20.88;;;0.10;99.90;;;;;;5123923;28;20051;-66
2022/01/10 05:53:33;;;;;;;47.95;19.75;;;0.10;99.90;;;;;;5124436;28;20052;-73
2022/01/10 05:55:59;;;;;;;43.58;19.10;;;0.10;99.90;;;;;;5099169;27;20054;-67
2022/01/10 05:58:26;;;;;;;32.75;17.90;;;0.00;99.90;;;;;;5108414;27;20580;-67
2022/01/10 06:00:52;;;;;;;38.25;18.38;;;0.10;99.90;;;;;;5128400;27;20080;-67
2022/01/10 06:03:18;;;;;;;38.05;18.90;;;0.00;99.90;;;;;;5117633;28;20039;-67
2022/01/10 06:05:43;;;;;;;38.30;17.92;;;0.00;99.90;;;;;;5117422;27;20051;-67
2022/01/10 06:08:09;;;;;;;36.20;17.30;;;0.10;99.90;;;;;;5122751;27;20036;-69
2022/01/10 06:10:36;;;;;;;40.28;18.20;;;-0.10;99.90;;;;;;5101792;27;20154;-69
2022/01/10 06:13:02;;;;;;;50.13;20.38;;;-0.10;99.90;;;;;;5118797;28;20035;-68
2022/01/10 06:15:28;;;;;;;39.17;18.90;;;0.00;99.90;;;;;;5116696;27;20395;-69
2022/01/10 06:17:53;;;;;;;42.53;19.90;;;0.10;99.90;;;;;;5131090;27;20121;-69
2022/01/10 06:20:19;;;;;;;40.80;18.92;;;0.10;99.90;;;;;;5135339;27;20039;-68
2022/01/10 06:22:45;;;;;;;32.20;16.75;;;-0.10;99.90;;;;;;5141298;27;20050;-70
2022/01/10 06:25:15;;;;;;;32.75;16.25;;;-0.10;99.90;;;;;;5122116;27;20047;-67
2022/01/10 06:27:41;;;;;;;41.80;16.65;;;-0.20;99.90;;;;;;5140297;27;20069;-67
2022/01/10 06:30:07;;;;;;;38.72;16.27;;;-0.10;99.90;;;;;;5121719;27;20040;-67
2022/01/10 06:32:33;;;;;;;32.33;17.00;;;-0.20;99.90;;;;;;5120682;27;20039;-70
2022/01/10 06:34:59;;;;;;;34.60;17.00;;;-0.20;99.90;;;;;;5120883;27;20103;-68
2022/01/10 06:37:25;;;;;;;42.80;19.58;;;-0.20;99.90;;;;;;5121808;27;20053;-71
2022/01/10 06:39:52;;;;;;;38.03;20.33;;;-0.20;99.90;;;;;;5119740;27;20047;-71
2022/01/10 06:42:19;;;;;;;41.33;19.90;;;-0.10;99.90;;;;;;5112958;27;20062;-71
2022/01/10 06:44:45;;;;;;;47.83;20.13;;;-0.10;99.90;;;;;;5126089;27;20069;-71
2022/01/10 06:47:11;;;;;;;39.33;20.33;;;-0.10;99.90;;;;;;5119253;27;20060;-70
2022/01/10 06:49:37;;;;;;;45.60;19.42;;;-0.10;99.90;;;;;;5126915;27;20040;-70
2022/01/10 06:52:03;;;;;;;40.65;18.35;;;-0.10;99.90;;;;;;5120395;27;20629;-69
2022/01/10 06:54:29;;;;;;;30.73;15.02;;;-0.10;99.90;;;;;;5134269;27;20110;-70
2022/01/10 06:56:58;;;;;;;29.95;16.27;;;-0.10;99.90;;;;;;5120750;27;20043;-71
2022/01/10 06:59:25;;;;;;;37.53;18.20;;;-0.20;99.90;;;;;;5135538;27;20040;-71
2022/01/10 07:01:52;;;;;;;32.47;16.55;;;-0.20;99.90;;;;;;5114820;27;20051;-70
2022/01/10 07:04:18;;;;;;;41.30;19.48;;;-0.20;99.90;;;;;;5124104;27;20047;-70
2022/01/10 07:06:44;;;;;;;37.85;17.98;;;-0.30;99.90;;;;;;5139166;27;20044;-70
2022/01/10 07:09:10;;;;;;;38.92;18.80;;;-0.30;99.90;;;;;;5108109;28;20072;-68
2022/01/10 07:11:36;;;;;;;38.33;18.15;;;-0.40;99.90;;;;;;5110464;27;20146;-67
2022/01/10 07:14:03;;;;;;;42.20;19.02;;;-0.20;99.90;;;;;;5131490;27;20054;-66
2022/01/10 07:16:29;;;;;;;40.53;18.40;;;-0.20;99.90;;;;;;5107659;27;20607;-67
2022/01/10 07:18:54;;;;;;;30.60;16.88;;;-0.10;99.90;;;;;;5126534;27;20051;-66
2022/01/10 07:21:20;;;;;;;31.95;16.65;;;-0.10;99.90;;;;;;5144711;27;20443;-67
2022/01/10 07:23:46;;;;;;;31.65;17.08;;;-0.10;99.90;;;;;;5102582;28;20040;-66
2022/01/10 07:26:12;;;;;;;39.25;18.70;;;0.00;99.90;;;;;;5114285;28;20035;-66
2022/01/10 07:28:37;;;;;;;44.33;19.13;;;-0.10;99.90;;;;;;5100851;28;20077;-66
2022/01/10 07:31:03;;;;;;;39.95;20.02;;;-0.30;99.90;;;;;;5118322;28;20123;-66
2022/01/10 07:33:29;;;;;;;35.75;17.67;;;-0.20;99.90;;;;;;5126863;27;20055;-66
2022/01/10 07:35:55;;;;;;;34.85;17.77;;;-0.20;99.90;;;;;;5114002;28;20531;-66
2022/01/10 07:38:21;;;;;;;35.42;17.65;;;-0.20;99.90;;;;;;5119534;27;20130;-66
2022/01/10 07:40:47;;;;;;;42.58;20.42;;;-0.30;99.90;;;;;;5106775;28;20056;-66
2022/01/10 07:43:12;;;;;;;32.05;18.48;;;-0.30;99.90;;;;;;5138198;27;20049;-66
2022/01/10 07:45:38;;;;;;;43.58;20.00;;;-0.40;99.90;;;;;;5116462;27;20292;-66
2022/01/10 07:48:05;;;;;;;41.42;18.50;;;-0.30;99.90;;;;;;5128673;27;20046;-66
2022/01/10 07:50:30;;;;;;;35.00;18.85;;;-0.40;99.90;;;;;;5107786;28;20043;-66
2022/01/10 07:52:56;;;;;;;42.25;19.92;;;-0.30;99.90;;;;;;5134363;27;20119;-66
2022/01/10 07:55:22;;;;;;;39.20;19.50;;;-0.30;99.90;;;;;;5128856;27;20064;-66
2022/01/10 07:57:48;;;;;;;40.67;21.35;;;-0.30;99.90;;;;;;5120701;27;20058;-70
2022/01/10 08:00:14;;;;;;;42.13;21.52;;;-0.30;99.90;;;;;;5121085;27;20039;-67
2022/01/10 08:02:39;;;;;;;41.20;20.25;;;-0.30;99.90;;;;;;5128623;27;20061;-66
2022/01/10 08:05:07;;;;;;;42.58;21.00;;;-0.10;99.90;;;;;;5125425;27;20047;-68
2022/01/10 08:07:34;;;;;;;39.22;21.38;;;-0.20;99.90;;;;;;5121942;27;20046;-66
2022/01/10 08:10:00;;;;;;;44.58;20.92;;;-0.30;99.90;;;;;;5106412;28;20036;-66
2022/01/10 08:12:26;;;;;;;48.67;22.38;;;-0.10;99.90;;;;;;5138129;27;20087;-66
2022/01/10 08:14:52;;;;;;;32.10;18.70;;;-0.10;99.90;;;;;;5103222;28;20044;-66
2022/01/10 08:17:17;;;;;;;32.63;17.50;;;-0.20;99.90;;;;;;5102450;28;20126;-66
2022/01/10 08:19:43;;;;;;;38.47;18.33;;;-0.20;99.90;;;;;;5115490;28;20206;-67
2022/01/10 08:22:09;;;;;;;35.55;17.83;;;-0.30;99.90;;;;;;5117037;27;20127;-66
2022/01/10 08:24:35;;;;;;;34.08;17.85;;;-0.30;99.90;;;;;;5124447;28;20040;-67
2022/01/10 08:27:00;;;;;;;33.60;20.65;;;-0.50;99.90;;;;;;5108745;28;20112;-66
2022/01/10 08:29:26;;;;;;;31.88;20.48;;;-0.30;99.90;;;;;;5129788;28;20043;-65
2022/01/10 08:31:52;;;;;;;36.00;19.02;;;-0.30;99.90;;;;;;5110914;27;20068;-66
2022/01/10 08:34:18;;;;;;;32.20;17.58;;;-0.40;99.90;;;;;;5121377;28;20051;-66
2022/01/10 08:36:44;;;;;;;35.22;18.83;;;-0.40;99.90;;;;;;5109385;27;20042;-66
2022/01/10 08:39:09;;;;;;;44.05;23.90;;;-0.30;99.90;;;;;;5126339;28;20053;-66
2022/01/10 08:41:36;;;;;;;48.80;24.45;;;-0.30;99.90;;;;;;5091828;27;20052;-67
2022/01/10 08:44:03;;;;;;;49.40;26.58;;;-0.20;99.90;;;;;;5117637;28;20043;-66
2022/01/10 08:46:29;;;;;;;48.78;24.95;;;0.00;99.90;;;;;;5114870;28;20083;-66
2022/01/10 08:48:54;;;;;;;47.13;30.88;;;-0.10;99.90;;;;;;5121992;28;20066;-66
2022/01/10 08:51:20;;;;;;;49.53;27.77;;;0.00;99.90;;;;;;5149410;27;20047;-66
2022/01/10 08:53:46;;;;;;;45.33;26.02;;;0.20;99.90;;;;;;5119713;27;20046;-66
2022/01/10 08:56:12;;;;;;;56.28;29.08;;;0.20;99.90;;;;;;5116341;28;20065;-66
2022/01/10 08:58:37;;;;;;;65.32;32.72;;;0.20;99.90;;;;;;5123686;27;20042;-66
2022/01/10 09:01:05;;;;;;;64.22;31.30;;;0.40;99.90;;;;;;5114629;28;20055;-66
2022/01/10 09:03:32;;;;;;;52.97;30.45;;;0.40;99.90;;;;;;5122787;27;20101;-66
2022/01/10 09:05:58;;;;;;;52.55;29.05;;;0.40;99.90;;;;;;5114583;28;20115;-66
2022/01/10 09:08:26;;;;;;;67.15;34.10;;;0.60;99.90;;;;;;5125087;27;20604;-67
2022/01/10 09:10:54;;;;;;;63.47;31.70;;;0.70;99.90;;;;;;5112126;28;20045;-66
2022/01/10 09:13:20;;;;;;;55.67;25.98;;;0.60;99.90;;;;;;5122498;27;20050;-66
2022/01/10 09:15:47;;;;;;;55.17;30.52;;;0.70;99.90;;;;;;5119695;27;20051;-66
2022/01/10 09:18:14;;;;;;;59.80;30.35;;;0.80;99.90;;;;;;5125439;27;20088;-66
2022/01/10 09:20:40;;;;;;;67.03;34.03;;;0.70;99.90;;;;;;5120464;27;20082;-66
2022/01/10 09:23:06;;;;;;;71.80;35.72;;;0.90;99.90;;;;;;5119091;27;20058;-66
2022/01/10 09:25:32;;;;;;;68.53;36.50;;;0.90;99.90;;;;;;5121671;27;20382;-66
2022/01/10 09:27:58;;;;;;;69.78;37.30;;;1.00;99.90;;;;;;5115662;27;20050;-66
2022/01/10 09:30:24;;;;;;;69.65;36.45;;;1.20;99.90;;;;;;5127268;27;20131;-66
2022/01/10 09:32:50;;;;;;;74.57;38.65;;;1.10;99.90;;;;;;5119682;27;20065;-66
2022/01/10 09:35:16;;;;;;;72.03;38.17;;;1.30;99.90;;;;;;5135512;27;20043;-66
2022/01/10 09:37:41;;;;;;;72.47;38.53;;;1.30;99.90;;;;;;5120316;27;20081;-66
2022/01/10 09:40:08;;;;;;;79.10;39.40;;;1.30;99.90;;;;;;5137262;27;20116;-66
2022/01/10 09:42:34;;;;;;;76.05;37.65;;;1.60;99.90;;;;;;5115667;27;20142;-66
2022/01/10 09:45:02;;;;;;;68.18;37.40;;;1.50;99.90;;;;;;5129929;27;20044;-67
2022/01/10 09:47:28;;;;;;;59.40;34.60;;;1.50;99.90;;;;;;5121635;27;20046;-66
2022/01/10 09:49:54;;;;;;;60.05;34.75;;;1.60;99.90;;;;;;5138464;27;20266;-67
2022/01/10 09:52:20;;;;;;;59.03;35.70;;;1.60;99.90;;;;;;5115757;27;20058;-66
2022/01/10 09:54:45;;;;;;;55.65;32.55;;;1.50;99.90;;;;;;5142178;27;20044;-67
2022/01/10 09:57:11;;;;;;;61.35;34.45;;;1.60;99.90;;;;;;5147966;27;20066;-66
2022/01/10 09:59:39;;;;;;;61.75;35.00;;;1.70;99.90;;;;;;5131955;27;20041;-67
2022/01/10 10:02:05;;;;;;;64.32;36.33;;;1.70;99.90;;;;;;5108562;27;20047;-67
2022/01/10 10:04:36;;;;;;;61.47;37.13;;;1.70;99.90;;;;;;5133415;27;20051;-66
2022/01/10 10:07:01;;;;;;;;;;;1.90;99.90;;;;;;5110331;27;20115;-66
2022/01/10 10:09:29;;;;;;;67.50;37.35;;;1.80;99.90;;;;;;5134115;27;19920;-66
2022/01/10 10:11:55;;;;;;;68.22;37.75;;;2.10;99.90;;;;;;5108801;27;20812;-67
2022/01/10 10:14:22;;;;;;;72.28;38.22;;;2.00;99.90;;;;;;5112539;28;20063;-66
2022/01/10 10:16:51;;;;;;;70.95;38.40;;;2.10;99.90;;;;;;5115561;28;20046;-66
2022/01/10 10:19:21;;;;;;;67.55;36.45;;;2.20;99.90;;;;;;5141450;27;20112;-66
2022/01/10 10:21:49;;;;;;;63.65;36.22;;;2.30;99.90;;;;;;5114073;28;20078;-66
2022/01/10 10:24:15;;;;;;;61.97;35.17;;;2.60;99.90;;;;;;5113398;27;20048;-66
2022/01/10 10:26:41;;;;;;;61.65;35.15;;;2.60;99.90;;;;;;5108883;28;20334;-66
2022/01/10 10:29:09;;;;;;;64.40;33.60;;;2.50;99.90;;;;;;5110098;27;20054;-66
2022/01/10 10:31:41;;;;;;;55.55;32.78;;;2.70;99.90;;;;;;5107000;28;20086;-66
2022/01/10 10:34:07;;;;;;;52.08;31.77;;;2.70;99.90;;;;;;5141295;27;20170;-66
2022/01/10 10:36:35;;;;;;;54.28;31.27;;;2.70;99.90;;;;;;5104089;28;20052;-66
2022/01/10 10:39:06;;;;;;;56.45;32.10;;;2.80;99.90;;;;;;5127747;27;20045;-67
2022/01/10 10:41:36;;;;;;;56.80;31.40;;;2.80;99.90;;;;;;5094666;28;20048;-66
2022/01/10 10:44:03;;;;;;;57.83;32.83;;;3.00;99.90;;;;;;5131576;27;20048;-66
2022/01/10 10:46:29;;;;;;;53.58;32.60;;;3.10;99.90;;;;;;5110249;27;20151;-66
2022/01/10 10:49:00;;;;;;;57.53;31.90;;;3.00;99.90;;;;;;5129319;27;20061;-66
2022/01/10 10:51:29;;;;;;;50.80;30.10;;;3.20;99.90;;;;;;5144205;27;20048;-67
2022/01/10 10:54:05;;;;;;;48.53;27.83;;;3.30;99.90;;;;;;5126047;27;20047;-67
2022/01/10 10:56:36;;;;;;;52.00;27.90;;;3.50;99.90;;;;;;5093190;28;20044;-66
2022/01/10 10:59:02;;;;;;;;;;;3.50;99.90;;;;;;5126091;27;20124;-66
2022/01/10 11:01:28;;;;;;;45.60;26.95;;;3.50;99.90;;;;;;5112707;28;19963;-66
2022/01/10 11:03:54;;;;;;;55.78;27.98;;;3.70;99.90;;;;;;5136613;27;20107;-66
2022/01/10 11:06:21;;;;;;;46.00;27.55;;;3.60;99.90;;;;;;5116140;27;20559;-66
2022/01/10 11:08:47;;;;;;;49.30;27.92;;;3.60;99.90;;;;;;5141158;27;20051;-66
2022/01/10 11:11:21;;;;;;;47.20;27.75;;;3.80;99.90;;;;;;5152084;27;20039;-66
2022/01/10 11:13:49;;;;;;;44.58;26.50;;;3.90;99.90;;;;;;5112439;27;20138;-66
2022/01/10 11:16:15;;;;;;;50.95;30.13;;;4.00;99.90;;;;;;5112694;28;20044;-66
2022/01/10 11:18:42;;;;;;;42.85;27.27;;;4.00;99.90;;;;;;5141415;27;20644;-67
2022/01/10 11:21:08;;;;;;;50.88;28.60;;;3.90;99.90;;;;;;5106713;28;20145;-66
2022/01/10 11:23:41;;;;;;;44.60;28.58;;;3.90;99.90;;;;;;5143545;27;20071;-67
2022/01/10 11:26:08;;;;;;;48.45;27.25;;;4.00;99.90;;;;;;5113841;27;20116;-66
2022/01/10 11:28:38;;;;;;;47.58;28.40;;;4.00;99.90;;;;;;5131032;27;20575;-66
2022/01/10 11:31:07;;;;;;;55.05;28.45;;;4.00;99.90;;;;;;5119549;27;20077;-66
2022/01/10 11:33:35;;;;;;;43.60;27.77;;;4.10;99.90;;;;;;5143677;27;20136;-65
2022/01/10 11:36:08;;;;;;;51.83;27.42;;;4.20;99.90;;;;;;5121114;27;20125;-66
2022/01/10 11:38:41;;;;;;;46.78;27.00;;;4.30;99.90;;;;;;5125262;27;20054;-66
2022/01/10 11:41:31;;;;;;;40.70;23.85;;;4.40;99.90;;;;;;5110472;27;20047;-67
2022/01/10 11:44:11;;;;;;;39.47;24.45;;;4.30;99.90;;;;;;5122777;27;20055;-65
2022/01/10 11:46:40;;;;;;;40.50;22.80;;;4.40;99.90;;;;;;5113895;28;20044;-66
2022/01/10 11:49:09;;;;;;;39.83;24.85;;;4.40;99.90;;;;;;5107815;27;20047;-66
2022/01/10 11:51:41;;;;;;;41.85;23.80;;;4.60;99.90;;;;;;5118568;28;20076;-65
2022/01/10 11:54:17;;;;;;;38.97;25.20;;;4.70;99.90;;;;;;5144403;27;20039;-66
2022/01/10 11:56:50;;;;;;;42.78;24.58;;;4.80;99.90;;;;;;5149311;27;20054;-67
2022/01/10 11:59:33;;;;;;;39.78;23.25;;;4.90;99.90;;;;;;5141570;27;20058;-66
2022/01/10 12:02:10;;;;;;;38.95;22.38;;;4.90;99.90;;;;;;5118466;28;20070;-66
2022/01/10 12:04:46;;;;;;;39.60;22.45;;;5.00;99.90;;;;;;5140376;27;20055;-66
2022/01/10 12:07:14;;;;;;;38.58;22.30;;;5.00;99.90;;;;;;5116830;28;20046;-66
2022/01/10 12:09:40;;;;;;;39.35;21.63;;;5.00;99.90;;;;;;5122748;27;20058;-65
2022/01/10 12:12:08;;;;;;;39.03;22.77;;;5.00;99.90;;;;;;5115296;28;20058;-65
2022/01/10 12:14:34;;;;;;;33.53;20.58;;;5.00;99.90;;;;;;5122447;27;20056;-65
2022/01/10 12:17:01;;;;;;;37.05;20.65;;;5.00;99.90;;;;;;5112628;28;20043;-65
2022/01/10 12:19:27;;;;;;;36.20;20.58;;;5.00;99.90;;;;;;5124489;27;20142;-65
2022/01/10 12:21:55;;;;;;;33.00;21.60;;;5.10;99.90;;;;;;5111416;28;20071;-65
2022/01/10 12:24:21;;;;;;;35.97;20.27;;;5.10;99.90;;;;;;5131282;27;20039;-65
2022/01/10 12:26:48;;;;;;;36.10;21.35;;;5.20;99.90;;;;;;5112184;28;20044;-66
2022/01/10 12:29:15;;;;;;;34.42;20.92;;;5.20;99.90;;;;;;5134618;27;20615;-66
2022/01/10 12:31:44;;;;;;;40.40;22.38;;;5.10;99.90;;;;;;5099112;28;20054;-66
2022/01/10 12:34:11;;;;;;;36.08;20.98;;;5.20;99.90;;;;;;5121771;27;20116;-66
2022/01/10 12:36:39;;;;;;;37.20;20.52;;;5.20;99.90;;;;;;5118618;27;20101;-66
2022/01/10 12:39:11;;;;;;;36.75;20.77;;;5.20;99.90;;;;;;5118846;28;20074;-66
2022/01/10 12:41:38;;;;;;;39.13;21.75;;;5.10;99.90;;;;;;5102497;28;20087;-66
2022/01/10 12:44:04;;;;;;;35.67;20.75;;;5.20;99.90;;;;;;5126786;27;20062;-67
2022/01/10 12:46:33;;;;;;;36.25;21.40;;;5.20;99.90;;;;;;5116974;28;20043;-67
2022/01/10 12:49:05;;;;;;;33.80;20.95;;;5.20;99.90;;;;;;5130891;27;20046;-67
2022/01/10 12:51:36;;;;;;;34.65;19.75;;;5.20;99.90;;;;;;5120866;28;20055;-66
2022/01/10 12:54:14;;;;;;;42.30;21.63;;;5.20;99.90;;;;;;5137003;27;20050;-66